createdAt,value
2023-05-19T00:01:00.666Z,3.05
2023-05-19T00:04:07.101Z,3.15
2023-05-19T00:07:13.566Z,3.40
2023-05-19T00:10:18.373Z,3.35
2023-05-19T00:13:21.810Z,3.85
2023-05-19T00:16:27.594Z,2.80
2023-05-19T00:19:32.469Z,3.20
2023-05-19T00:22:37.073Z,3.00
2023-05-19T00:25:39.547Z,3.17
2023-05-19T00:28:42.979Z,3.75
2023-05-19T00:31:46.412Z,3.75
2023-05-19T00:34:50.978Z,3.30
2023-05-19T00:37:56.315Z,3.40
2023-05-19T00:41:01.336Z,3.58
2023-05-19T00:44:03.832Z,3.40
2023-05-19T00:47:08.445Z,3.47
2023-05-19T00:50:12.331Z,3.35
2023-05-19T00:53:17.447Z,3.95
2023-05-19T00:56:22.059Z,3.15
2023-05-19T00:59:26.047Z,3.70
2023-05-19T01:02:29.848Z,3.90
2023-05-19T01:05:32.786Z,3.90
2023-05-19T01:08:37.483Z,4.37
2023-05-19T01:11:40.820Z,4.25
2023-05-19T01:14:45.378Z,4.07
2023-05-19T01:18:07.516Z,4.05
2023-05-19T01:21:44.410Z,4.03
2023-05-19T01:25:15.589Z,4.32
2023-05-19T01:28:48.922Z,4.62
2023-05-19T01:31:55.360Z,4.55
2023-05-19T01:34:58.810Z,4.70
2023-05-19T01:38:03.461Z,4.28
2023-05-19T01:41:07.597Z,4.65
2023-05-19T01:44:11.778Z,4.32
2023-05-19T01:47:15.485Z,4.55
2023-05-19T01:50:18.093Z,4.80
2023-05-19T01:53:20.444Z,4.50
2023-05-19T01:56:38.846Z,4.93
2023-05-19T02:00:07.932Z,5.00
2023-05-19T02:03:38.429Z,4.75
2023-05-19T02:07:22.556Z,5.32
2023-05-19T02:10:32.466Z,4.85
2023-05-19T02:13:41.690Z,4.82
2023-05-19T02:16:48.732Z,4.05
2023-05-19T02:19:52.291Z,4.62
2023-05-19T02:22:54.904Z,4.57
2023-05-19T02:25:58.638Z,4.85
2023-05-19T02:29:02.017Z,4.75
2023-05-19T02:32:06.978Z,4.65
2023-05-19T02:35:10.110Z,4.80
2023-05-19T02:38:13.464Z,4.50
2023-05-19T02:41:16.066Z,5.10
2023-05-19T02:44:19.846Z,4.87
2023-05-19T02:47:22.908Z,5.25
2023-05-19T02:50:25.556Z,4.82
2023-05-19T02:53:30.028Z,4.75
2023-05-19T02:56:32.353Z,4.97
2023-05-19T02:59:36.705Z,4.90
2023-05-19T03:02:41.882Z,4.93
2023-05-19T03:05:44.757Z,4.85
2023-05-19T03:08:47.438Z,5.07
2023-05-19T03:11:50.138Z,4.80
2023-05-19T03:14:52.871Z,4.93
2023-05-19T03:17:57.156Z,5.37
2023-05-19T03:20:59.732Z,5.15
2023-05-19T03:24:04.507Z,4.93
2023-05-19T03:27:07.303Z,5.22
2023-05-19T03:30:10.999Z,4.82
2023-05-19T03:33:15.219Z,5.35
2023-05-19T03:36:20.027Z,4.97
2023-05-19T03:39:23.412Z,4.62
2023-05-19T03:42:26.625Z,5.18
2023-05-19T03:45:29.274Z,4.95
2023-05-19T03:48:37.159Z,5.20
2023-05-19T03:51:43.364Z,5.15
2023-05-19T03:54:54.131Z,5.00
2023-05-19T03:57:57.458Z,5.28
2023-05-19T04:01:00.764Z,4.68
2023-05-19T04:04:03.953Z,5.97
2023-05-19T04:07:07.442Z,5.22
2023-05-19T04:10:13.138Z,5.30
2023-05-19T04:13:15.502Z,5.03
2023-05-19T04:16:20.060Z,5.12
2023-05-19T04:19:23.520Z,5.62
2023-05-19T04:22:27.616Z,5.30
2023-05-19T04:25:30.012Z,4.97
2023-05-19T04:28:36.054Z,5.35
2023-05-19T04:31:38.580Z,5.55
2023-05-19T04:34:45.359Z,5.20
2023-05-19T04:37:48.533Z,5.47
2023-05-19T04:40:52.522Z,6.00
2023-05-19T04:43:57.567Z,5.90
2023-05-19T04:47:00.305Z,5.55
2023-05-19T04:50:03.257Z,5.25
2023-05-19T04:53:05.855Z,5.60
2023-05-19T04:56:09.874Z,5.68
2023-05-19T04:59:12.673Z,5.68
2023-05-19T05:02:15.470Z,5.53
2023-05-19T05:05:18.190Z,6.18
2023-05-19T05:08:23.353Z,5.72
2023-05-19T05:11:26.767Z,6.78
2023-05-19T05:14:30.114Z,6.87
2023-05-19T05:17:35.448Z,6.95
2023-05-19T05:20:38.516Z,7.12
2023-05-19T05:23:41.453Z,6.60
2023-05-19T05:26:45.043Z,7.50
2023-05-19T05:29:48.748Z,7.35
2023-05-19T05:32:52.069Z,7.00
2023-05-19T05:35:58.371Z,7.50
2023-05-19T05:39:02.492Z,7.72
2023-05-19T05:42:05.220Z,7.55
2023-05-19T05:45:08.135Z,7.40
2023-05-19T05:48:11.524Z,7.37
2023-05-19T05:51:14.184Z,7.60
2023-05-19T05:54:21.701Z,7.60
2023-05-19T05:57:25.170Z,7.10
2023-05-19T06:00:29.006Z,7.18
2023-05-19T06:03:32.269Z,7.35
2023-05-19T06:06:40.736Z,6.90
2023-05-19T06:09:43.729Z,7.25
2023-05-19T06:12:46.088Z,6.78
2023-05-19T06:15:48.744Z,7.40
2023-05-19T06:18:51.373Z,7.32
2023-05-19T06:21:54.006Z,7.62
2023-05-19T06:24:56.465Z,8.23
2023-05-19T06:27:59.113Z,7.55
2023-05-19T06:31:01.688Z,7.15
2023-05-19T06:34:05.267Z,7.62
2023-05-19T06:37:07.933Z,7.47
2023-05-19T06:40:12.024Z,7.90
2023-05-19T06:43:14.833Z,7.03
2023-05-19T06:46:21.113Z,7.35
2023-05-19T06:49:24.021Z,7.07
2023-05-19T06:52:26.687Z,7.07
2023-05-19T06:55:29.638Z,7.28
2023-05-19T06:58:33.102Z,7.35
2023-05-19T07:01:36.346Z,6.95
2023-05-19T07:04:39.943Z,6.62
2023-05-19T07:07:42.575Z,7.37
2023-05-19T07:10:47.066Z,6.80
2023-05-19T07:13:50.200Z,6.93
2023-05-19T07:16:53.645Z,6.07
2023-05-19T07:19:56.180Z,5.87
2023-05-19T07:22:58.676Z,5.62
2023-05-19T07:26:01.187Z,5.90
2023-05-19T07:29:03.801Z,6.18
2023-05-19T07:32:06.758Z,6.18
2023-05-19T07:35:09.450Z,6.40
2023-05-19T07:38:12.199Z,6.10
2023-05-19T07:41:15.050Z,5.78
2023-05-19T07:44:17.352Z,5.50
2023-05-19T07:47:19.866Z,5.50
2023-05-19T07:50:22.305Z,4.75
2023-05-19T07:53:24.885Z,4.20
2023-05-19T07:56:27.374Z,4.87
2023-05-19T07:59:29.867Z,4.12
2023-05-19T08:02:32.201Z,4.25
2023-05-19T08:05:36.131Z,4.00
2023-05-19T08:08:38.298Z,3.17
2023-05-19T08:11:41.081Z,3.67
2023-05-19T08:14:43.265Z,3.10
2023-05-19T08:17:46.021Z,3.55
2023-05-19T08:20:48.281Z,3.30
2023-05-19T08:23:51.166Z,3.62
2023-05-19T08:26:53.376Z,3.28
2023-05-19T08:29:56.150Z,3.65
2023-05-19T08:32:58.451Z,3.10
2023-05-19T08:36:01.642Z,3.45
2023-05-19T08:39:04.076Z,2.90
2023-05-19T08:42:10.040Z,3.47
2023-05-19T08:45:13.102Z,3.37
2023-05-19T08:48:18.711Z,3.85
2023-05-19T08:51:32.140Z,3.78
2023-05-19T08:54:50.888Z,3.87
2023-05-19T08:57:53.480Z,4.15
2023-05-19T09:00:57.747Z,3.90
2023-05-19T09:04:00.200Z,3.85
2023-05-19T09:07:04.038Z,4.18
2023-05-19T09:10:08.926Z,4.20
2023-05-19T09:13:11.683Z,4.22
2023-05-19T09:16:14.334Z,4.20
2023-05-19T09:19:17.076Z,3.83
2023-05-19T09:22:20.588Z,4.22
2023-05-19T09:25:24.019Z,4.87
2023-05-19T09:28:34.264Z,4.60
2023-05-19T09:31:36.861Z,3.97
2023-05-19T09:34:42.173Z,4.30
2023-05-19T09:37:44.696Z,6.22
2023-05-19T09:40:49.747Z,5.22
2023-05-19T09:43:56.311Z,5.62
2023-05-19T09:46:58.876Z,4.95
2023-05-19T09:50:01.492Z,4.50
2023-05-19T09:53:04.071Z,3.97
2023-05-19T09:56:08.843Z,4.93
2023-05-19T09:59:14.110Z,4.82
2023-05-19T10:02:20.224Z,4.70
2023-05-19T10:05:23.692Z,5.43
2023-05-19T10:08:27.491Z,5.70
2023-05-19T10:11:30.963Z,5.82
2023-05-19T10:14:33.285Z,5.30
2023-05-19T10:17:38.180Z,6.15
2023-05-19T10:20:41.347Z,5.10
2023-05-19T10:23:43.840Z,5.15
2023-05-19T10:26:55.158Z,5.60
2023-05-19T10:30:02.218Z,5.30
2023-05-19T10:33:08.073Z,4.87
2023-05-19T10:36:37.961Z,5.30
2023-05-19T10:39:44.609Z,5.00
2023-05-19T10:42:57.942Z,5.22
2023-05-19T10:46:00.862Z,4.80
2023-05-19T10:49:03.371Z,4.75
2023-05-19T10:52:21.459Z,4.87
2023-05-19T10:55:46.732Z,4.97
2023-05-19T10:58:50.522Z,4.60
2023-05-19T11:01:53.200Z,5.07
2023-05-19T11:04:58.405Z,5.28
2023-05-19T11:08:11.634Z,4.32
2023-05-19T11:11:17.547Z,4.43
2023-05-19T11:14:27.168Z,4.87
2023-05-19T11:17:29.526Z,5.00
2023-05-19T11:20:34.804Z,4.65
2023-05-19T11:23:40.239Z,4.35
2023-05-19T11:26:46.311Z,4.57
2023-05-19T11:29:49.416Z,4.43
2023-05-19T11:32:54.392Z,4.40
2023-05-19T11:35:58.498Z,4.20
2023-05-19T11:39:33.192Z,4.95
2023-05-19T11:42:48.424Z,4.47
2023-05-19T11:45:54.278Z,4.30
2023-05-19T11:48:58.291Z,4.05
2023-05-19T11:52:03.898Z,4.15
2023-05-19T11:55:06.809Z,4.37
2023-05-19T11:58:09.314Z,4.12
2023-05-19T12:01:11.580Z,4.40
2023-05-19T12:04:14.095Z,4.35
2023-05-19T12:07:18.406Z,4.43
2023-05-19T12:10:26.103Z,4.47
2023-05-19T12:13:28.891Z,3.67
2023-05-19T12:16:35.427Z,3.85
2023-05-19T12:19:37.969Z,3.80
2023-05-19T12:22:40.772Z,4.40
2023-05-19T12:25:43.081Z,3.65
2023-05-19T12:28:46.189Z,3.80
2023-05-19T12:31:49.421Z,3.78
2023-05-19T12:34:53.212Z,4.05
2023-05-19T12:37:55.840Z,3.53
2023-05-19T12:40:59.995Z,3.60
2023-05-19T12:44:02.150Z,3.60
2023-05-19T12:47:06.074Z,4.05
2023-05-19T12:50:09.915Z,3.87
2023-05-19T12:53:14.424Z,3.10
2023-05-19T12:56:17.116Z,3.75
2023-05-19T12:59:37.407Z,3.70
2023-05-19T13:03:06.653Z,3.80
2023-05-19T13:06:10.403Z,3.50
2023-05-19T13:09:13.101Z,3.33
2023-05-19T13:12:16.524Z,3.58
2023-05-19T13:15:18.765Z,3.90
2023-05-19T13:18:21.424Z,3.72
2023-05-19T13:21:25.480Z,3.70
2023-05-19T13:24:29.608Z,3.40
2023-05-19T13:27:31.827Z,3.80
2023-05-19T13:30:36.462Z,3.78
2023-05-19T13:33:39.047Z,3.80
2023-05-19T13:36:42.811Z,3.35
2023-05-19T13:39:45.073Z,3.45
2023-05-19T13:42:48.139Z,3.70
2023-05-19T13:45:50.446Z,3.65
2023-05-19T13:48:53.134Z,3.30
2023-05-19T13:51:58.637Z,3.42
2023-05-19T13:55:01.195Z,3.78
2023-05-19T13:58:03.547Z,3.22
2023-05-19T14:01:06.109Z,3.40
2023-05-19T14:04:08.714Z,3.45
2023-05-19T14:07:11.079Z,3.75
2023-05-19T14:10:13.610Z,3.20
2023-05-19T14:13:30.960Z,3.03
2023-05-19T14:16:36.357Z,3.33
2023-05-19T14:19:40.865Z,3.03
2023-05-19T14:22:43.389Z,3.30
2023-05-19T14:25:45.776Z,2.70
2023-05-19T14:28:48.242Z,3.30
2023-05-19T14:31:50.598Z,3.62
2023-05-19T14:34:53.335Z,3.30
2023-05-19T14:37:55.686Z,3.10
2023-05-19T14:40:58.162Z,3.17
2023-05-19T14:44:00.510Z,3.20
2023-05-19T14:47:04.119Z,3.65
2023-05-19T14:50:06.829Z,3.15
2023-05-19T14:53:09.431Z,3.37
2023-05-19T14:56:11.603Z,2.90
2023-05-19T14:59:14.146Z,3.12
2023-05-19T15:02:16.441Z,3.33
2023-05-19T15:05:19.047Z,3.35
2023-05-19T15:08:21.302Z,3.25
2023-05-19T15:11:24.182Z,3.25
2023-05-19T15:14:27.859Z,3.12
2023-05-19T15:17:31.225Z,3.00
2023-05-19T15:20:33.710Z,3.10
2023-05-19T15:23:36.396Z,3.30
2023-05-19T15:26:38.606Z,2.72
2023-05-19T15:29:41.261Z,3.47
2023-05-19T15:32:43.483Z,3.20
2023-05-19T15:35:47.654Z,2.95
2023-05-19T15:38:49.838Z,2.97
2023-05-19T15:41:52.303Z,3.15
2023-05-19T15:44:54.549Z,3.85
2023-05-19T15:47:57.129Z,3.33
2023-05-19T15:50:59.808Z,3.20
2023-05-19T15:54:02.333Z,3.25
2023-05-19T15:57:04.699Z,3.72
2023-05-19T16:00:07.824Z,4.30
2023-05-19T16:03:11.099Z,4.15
2023-05-19T16:06:13.489Z,3.17
2023-05-19T16:09:16.374Z,3.58
2023-05-19T16:12:18.665Z,3.08
2023-05-19T16:15:21.178Z,3.20
2023-05-19T16:18:23.639Z,3.22
2023-05-19T16:21:26.201Z,3.33
2023-05-19T16:24:28.415Z,3.78
2023-05-19T16:27:30.847Z,3.50
2023-05-19T16:30:33.331Z,3.05
2023-05-19T16:33:35.920Z,4.03
2023-05-19T16:36:38.292Z,3.50
2023-05-19T16:39:43.670Z,3.35
2023-05-19T16:42:45.935Z,3.20
2023-05-19T16:45:48.462Z,3.72
2023-05-19T16:48:50.920Z,4.10
2023-05-19T16:51:54.220Z,4.20
2023-05-19T16:54:56.501Z,4.15
2023-05-19T16:57:59.288Z,3.85
2023-05-19T17:01:01.609Z,3.85
2023-05-19T17:04:04.179Z,4.30
2023-05-19T17:07:06.404Z,4.10
2023-05-19T17:10:09.563Z,4.10
2023-05-19T17:13:11.947Z,4.35
2023-05-19T17:16:14.686Z,3.80
2023-05-19T17:19:16.971Z,4.05
2023-05-19T17:22:19.500Z,4.12
2023-05-19T17:25:21.677Z,3.75
2023-05-19T17:28:24.178Z,4.10
2023-05-19T17:31:26.385Z,3.75
2023-05-19T17:34:30.013Z,3.97
2023-05-19T17:37:33.175Z,4.10
2023-05-19T17:40:36.721Z,4.30
2023-05-19T17:43:41.280Z,4.30
2023-05-19T17:46:43.762Z,4.03
2023-05-19T17:49:45.984Z,3.97
2023-05-19T17:52:48.890Z,3.22
2023-05-19T17:55:53.446Z,3.70
2023-05-19T17:58:56.220Z,4.03
2023-05-19T18:01:58.793Z,4.35
2023-05-19T18:05:01.815Z,3.78
2023-05-19T18:08:07.722Z,4.25
2023-05-19T18:11:13.350Z,4.35
2023-05-19T18:14:15.539Z,4.28
2023-05-19T18:17:18.001Z,3.90
2023-05-19T18:20:20.366Z,4.10
2023-05-19T18:23:22.851Z,3.95
2023-05-19T18:26:25.070Z,4.22
2023-05-19T18:29:27.588Z,4.72
2023-05-19T18:32:30.132Z,4.80
2023-05-19T18:35:32.725Z,5.28
2023-05-19T18:41:41.153Z,6.32
2023-05-19T18:44:46.717Z,6.45
2023-05-19T18:47:49.225Z,6.40
2023-05-19T18:50:51.854Z,6.10
2023-05-19T18:53:54.294Z,6.37
2023-05-19T18:56:56.487Z,6.25
2023-05-19T18:59:58.983Z,6.18
2023-05-19T19:03:01.787Z,5.93
2023-05-19T19:06:04.367Z,6.03
2023-05-19T19:09:07.212Z,6.00
2023-05-19T19:12:10.630Z,6.32
2023-05-19T19:15:12.915Z,6.75
2023-05-19T19:18:15.877Z,6.78
2023-05-19T19:21:19.811Z,6.57
2023-05-19T19:24:22.330Z,6.45
2023-05-19T19:27:26.300Z,6.30
2023-05-19T19:30:29.476Z,7.68
2023-05-19T19:33:31.749Z,7.22
2023-05-19T19:36:34.762Z,6.68
2023-05-19T19:39:38.020Z,6.55
2023-05-19T19:42:40.723Z,6.32
2023-05-19T19:45:43.001Z,6.22
2023-05-19T19:48:45.620Z,6.62
2023-05-19T19:51:47.864Z,6.87
2023-05-19T19:54:50.571Z,6.75
2023-05-19T19:57:52.863Z,7.00
2023-05-19T20:00:59.703Z,6.53
2023-05-19T20:04:02.290Z,6.65
2023-05-19T20:07:04.855Z,6.70
2023-05-19T20:10:08.212Z,7.25
2023-05-19T20:13:10.492Z,7.18
2023-05-19T20:16:13.095Z,7.22
2023-05-19T20:19:15.470Z,6.95
2023-05-19T20:22:17.975Z,6.60
2023-05-19T20:25:20.342Z,6.75
2023-05-19T20:28:24.127Z,6.60
2023-05-19T20:31:26.608Z,6.75
2023-05-19T20:34:29.115Z,6.87
2023-05-19T20:37:31.358Z,7.20
2023-05-19T20:40:33.849Z,7.12
2023-05-19T20:43:36.287Z,7.07
2023-05-19T20:46:38.779Z,6.82
2023-05-19T20:49:40.978Z,7.25
2023-05-19T20:52:43.536Z,7.30
2023-05-19T20:55:46.253Z,7.50
2023-05-19T20:58:48.709Z,8.60
2023-05-19T21:01:51.232Z,8.40
2023-05-19T21:04:53.989Z,8.30
2023-05-19T21:07:56.369Z,8.05
2023-05-19T21:10:59.353Z,8.15
2023-05-19T21:14:04.191Z,8.65
2023-05-19T21:17:07.383Z,8.45
2023-05-19T21:20:10.297Z,7.62
2023-05-19T21:23:12.795Z,7.93
2023-05-19T21:26:15.159Z,7.57
2023-05-19T21:29:17.578Z,8.75
2023-05-19T21:32:20.744Z,7.30
2023-05-19T21:35:23.219Z,8.15
2023-05-19T21:38:25.518Z,7.80
2023-05-19T21:41:28.265Z,7.90
2023-05-19T21:44:31.933Z,8.02
2023-05-19T21:47:34.426Z,7.80
2023-05-19T21:50:37.674Z,7.87
2023-05-19T21:53:40.249Z,7.20
2023-05-19T21:56:42.437Z,7.85
2023-05-19T21:59:45.081Z,7.07
2023-05-19T22:02:47.428Z,6.95
2023-05-19T22:05:51.639Z,6.20
2023-05-19T22:08:53.839Z,6.37
2023-05-19T22:11:56.306Z,5.85
2023-05-19T22:14:58.728Z,5.80
2023-05-19T22:18:01.287Z,6.47
2023-05-19T22:21:03.797Z,7.40
2023-05-19T22:24:06.448Z,8.30
2023-05-19T22:27:08.752Z,7.97
2023-05-19T22:30:11.264Z,7.60
2023-05-19T22:33:13.582Z,7.97
2023-05-19T22:36:16.498Z,7.95
2023-05-19T22:39:18.668Z,7.85
2023-05-19T22:42:21.237Z,7.35
2023-05-19T22:45:23.422Z,7.22
2023-05-19T22:48:26.092Z,7.72
2023-05-19T22:51:28.302Z,8.27
2023-05-19T22:54:30.952Z,7.93
2023-05-19T22:57:33.135Z,8.45
2023-05-19T23:00:35.709Z,7.93
2023-05-19T23:03:38.015Z,7.30
2023-05-19T23:06:41.299Z,7.87
2023-05-19T23:09:43.498Z,7.18
2023-05-19T23:12:45.945Z,7.68
2023-05-19T23:15:48.740Z,7.62
2023-05-19T23:18:51.350Z,5.97
2023-05-19T23:21:53.685Z,5.75
2023-05-19T23:24:56.201Z,5.80
2023-05-19T23:27:58.424Z,6.22
2023-05-19T23:31:01.479Z,5.43
2023-05-19T23:34:03.746Z,5.40
2023-05-19T23:37:06.357Z,5.40
2023-05-19T23:40:09.111Z,5.90
2023-05-19T23:43:11.630Z,5.30
2023-05-19T23:46:13.900Z,4.78
2023-05-19T23:49:16.501Z,5.62
2023-05-19T23:52:18.700Z,5.90
2023-05-19T23:55:21.329Z,5.68
2023-05-19T23:58:23.611Z,6.15
